Time;durP1;ratioP1;P1;durP2;ratioP2;P2;SDS_P1;SDS_P2;PMS_P1;PMS_P2;Temp;Humidity;BMP_temperature;BMP_pressure;BME280_temperature;BME280_humidity;BME280_pressure;Samples;Min_cycle;Max_cycle;Signal;HPM_P1;HPM_P2
2021/09/11 00:00:00;;;;;;;5.65;4.32;;;;;;;;;;5094749;28;20024;-75
2021/09/11 00:02:26;;;;;;;6.88;4.07;;;;;;;;;;5093217;28;20077;-75
2021/09/11 00:04:52;;;;;;;5.18;4.60;;;;;;;;;;5094540;28;20073;-75
2021/09/11 00:07:18;;;;;;;5.28;4.75;;;;;;;;;;5094435;28;20097;-75
2021/09/11 00:09:44;;;;;;;6.40;5.30;;;;;;;;;;5094508;28;20035;-74
2021/09/11 00:12:11;;;;;;;6.43;5.00;;;;;;;;;;5093154;28;20024;-75
2021/09/11 00:14:37;;;;;;;6.03;4.47;;;;;;;;;;5094504;28;20067;-75
2021/09/11 00:17:03;;;;;;;6.57;4.63;;;;;;;;;;5094449;28;20024;-75
2021/09/11 00:19:29;;;;;;;7.75;5.53;;;;;;;;;;5094289;28;20024;-75
2021/09/11 00:21:55;;;;;;;8.30;5.57;;;;;;;;;;5094273;28;20038;-75
2021/09/11 00:24:21;;;;;;;6.10;5.50;;;;;;;;;;5094191;28;20036;-75
2021/09/11 00:26:47;;;;;;;5.80;4.68;;;;;;;;;;5094258;28;20040;-75
2021/09/11 00:29:14;;;;;;;5.25;4.72;;;;;;;;;;5094119;28;20102;-75
2021/09/11 00:31:40;;;;;;;5.80;4.97;;;;;;;;;;5094272;28;20020;-75
2021/09/11 00:34:06;;;;;;;6.00;5.28;;;;;;;;;;5094068;28;20389;-75
2021/09/11 00:36:32;;;;;;;16.92;14.55;;;;;;;;;;5094040;28;20031;-75
2021/09/11 00:38:58;;;;;;;6.38;5.68;;;;;;;;;;5093797;28;20437;-75
2021/09/11 00:41:24;;;;;;;7.22;6.10;;;;;;;;;;5092619;28;20058;-75
2021/09/11 00:43:51;;;;;;;7.25;6.43;;;;;;;;;;5094058;28;20028;-75
2021/09/11 00:46:17;;;;;;;7.07;5.82;;;;;;;;;;5092884;28;20032;-75
2021/09/11 00:48:44;;;;;;;7.75;6.10;;;;;;;;;;5093736;28;20463;-75
2021/09/11 00:51:11;;;;;;;6.68;6.07;;;;;;;;;;5093755;28;20490;-75
2021/09/11 00:53:37;;;;;;;8.43;6.32;;;;;;;;;;5093778;28;20027;-75
2021/09/11 00:56:04;;;;;;;6.53;5.50;;;;;;;;;;5093833;28;20021;-75
2021/09/11 00:58:30;;;;;;;6.70;5.93;;;;;;;;;;5092134;28;20046;-74
2021/09/11 01:00:56;;;;;;;7.93;5.95;;;;;;;;;;5092095;28;20165;-75
2021/09/11 01:03:22;;;;;;;6.88;6.28;;;;;;;;;;5093667;28;20519;-75
2021/09/11 01:05:49;;;;;;;6.45;5.65;;;;;;;;;;5093484;28;20054;-75
2021/09/11 01:08:15;;;;;;;6.90;5.25;;;;;;;;;;5093390;28;20028;-75
2021/09/11 01:10:41;;;;;;;7.07;6.38;;;;;;;;;;5093629;28;20534;-75
2021/09/11 01:13:09;;;;;;;6.18;5.57;;;;;;;;;;5093553;28;20020;-75
2021/09/11 01:15:37;;;;;;;6.15;5.57;;;;;;;;;;5093539;28;20036;-74
2021/09/11 01:18:04;;;;;;;5.88;5.38;;;;;;;;;;5093398;28;20495;-75
2021/09/11 01:20:30;;;;;;;6.00;5.47;;;;;;;;;;5093683;28;20115;-75
2021/09/11 01:22:56;;;;;;;6.15;5.55;;;;;;;;;;5093475;28;20028;-74
2021/09/11 01:25:23;;;;;;;5.78;5.25;;;;;;;;;;5093086;28;20032;-75
2021/09/11 01:27:49;;;;;;;6.47;5.20;;;;;;;;;;5092946;28;20090;-75
2021/09/11 01:30:16;;;;;;;5.53;4.97;;;;;;;;;;5093340;28;20054;-74
2021/09/11 01:32:43;;;;;;;6.82;5.20;;;;;;;;;;5093281;28;20031;-74
2021/09/11 01:35:09;;;;;;;6.07;5.57;;;;;;;;;;5093220;28;20059;-74
2021/09/11 01:37:35;;;;;;;6.38;5.80;;;;;;;;;;5093285;28;20443;-75
2021/09/11 01:40:02;;;;;;;6.60;5.35;;;;;;;;;;5093085;28;20400;-74
2021/09/11 01:42:28;;;;;;;5.75;5.20;;;;;;;;;;5093514;28;20028;-75
2021/09/11 01:44:59;;;;;;;5.63;5.13;;;;;;;;;;5093246;28;20094;-74
2021/09/11 01:47:25;;;;;;;6.05;5.45;;;;;;;;;;5093196;28;20115;-74
2021/09/11 01:49:52;;;;;;;5.65;5.10;;;;;;;;;;5093194;28;20479;-74
2021/09/11 01:52:18;;;;;;;5.07;4.57;;;;;;;;;;5093104;28;20035;-74
2021/09/11 01:54:44;;;;;;;5.50;4.95;;;;;;;;;;5091863;28;20134;-75
2021/09/11 01:57:10;;;;;;;6.40;5.40;;;;;;;;;;5093236;28;20042;-75
2021/09/11 01:59:36;;;;;;;6.15;5.53;;;;;;;;;;5096646;28;20031;-74
2021/09/11 02:02:03;;;;;;;6.13;5.28;;;;;;;;;;5096923;28;20062;-75
2021/09/11 02:04:30;;;;;;;5.28;4.80;;;;;;;;;;5095610;28;20024;-74
2021/09/11 02:06:56;;;;;;;5.85;5.25;;;;;;;;;;5096787;28;20505;-75
2021/09/11 02:09:22;;;;;;;5.78;5.03;;;;;;;;;;5095436;28;20420;-75
2021/09/11 02:11:48;;;;;;;5.70;5.13;;;;;;;;;;5096816;28;20056;-74
2021/09/11 02:14:14;;;;;;;5.85;4.95;;;;;;;;;;5096623;28;20401;-75
2021/09/11 02:16:43;;;;;;;5.35;4.82;;;;;;;;;;5096670;28;20506;-74
2021/09/11 02:19:09;;;;;;;5.68;5.18;;;;;;;;;;5096639;28;20027;-74
2021/09/11 02:21:35;;;;;;;6.65;5.47;;;;;;;;;;5096528;28;20097;-75
2021/09/11 02:24:01;;;;;;;5.82;5.25;;;;;;;;;;5096378;28;20032;-74
2021/09/11 02:26:27;;;;;;;9.13;6.68;;;;;;;;;;5096426;28;20024;-75
2021/09/11 02:28:53;;;;;;;7.75;6.45;;;;;;;;;;5096666;28;20036;-75
2021/09/11 02:31:20;;;;;;;6.70;6.07;;;;;;;;;;5096332;28;20028;-75
2021/09/11 02:33:49;;;;;;;6.40;5.80;;;;;;;;;;5095070;28;20066;-75
2021/09/11 02:36:16;;;;;;;7.50;6.80;;;;;;;;;;5096283;28;20660;-75
2021/09/11 02:38:42;;;;;;;7.95;6.25;;;;;;;;;;5095908;28;20048;-74
2021/09/11 02:41:08;;;;;;;9.63;6.40;;;;;;;;;;5094792;28;20066;-74
2021/09/11 02:43:34;;;;;;;6.82;5.75;;;;;;;;;;5094763;28;20505;-75
2021/09/11 02:46:00;;;;;;;7.90;5.88;;;;;;;;;;5096002;28;20117;-74
2021/09/11 02:48:26;;;;;;;7.68;5.95;;;;;;;;;;5096151;28;20032;-75
2021/09/11 02:50:52;;;;;;;7.07;6.38;;;;;;;;;;5096181;28;20035;-76
2021/09/11 02:53:19;;;;;;;6.70;6.10;;;;;;;;;;5096013;28;20024;-75
2021/09/11 02:55:45;;;;;;;7.80;6.28;;;;;;;;;;5096020;28;20027;-75
2021/09/11 02:58:11;;;;;;;7.97;6.80;;;;;;;;;;5095843;28;20474;-75
2021/09/11 03:00:37;;;;;;;6.65;6.03;;;;;;;;;;5095740;28;20032;-76
2021/09/11 03:03:04;;;;;;;6.30;5.70;;;;;;;;;;5095793;28;20028;-75
2021/09/11 03:05:30;;;;;;;6.32;5.78;;;;;;;;;;5094443;28;20423;-75
2021/09/11 03:07:56;;;;;;;7.00;6.28;;;;;;;;;;5095548;28;20036;-75
2021/09/11 03:10:23;;;;;;;6.18;5.68;;;;;;;;;;5094720;28;20051;-75
2021/09/11 03:12:49;;;;;;;6.85;6.15;;;;;;;;;;5095687;28;20381;-75
2021/09/11 03:15:15;;;;;;;6.18;5.57;;;;;;;;;;5095432;28;20028;-75
2021/09/11 03:17:41;;;;;;;6.63;6.03;;;;;;;;;;5095427;28;20028;-75
2021/09/11 03:20:08;;;;;;;7.65;6.95;;;;;;;;;;5095438;28;20024;-75
2021/09/11 03:22:35;;;;;;;7.50;6.35;;;;;;;;;;5095449;28;20047;-75
2021/09/11 03:25:01;;;;;;;8.15;7.18;;;;;;;;;;5095268;28;20032;-76
2021/09/11 03:27:27;;;;;;;7.20;6.50;;;;;;;;;;5095276;28;20032;-76
2021/09/11 03:29:53;;;;;;;6.65;5.97;;;;;;;;;;5095227;28;20024;-75
2021/09/11 03:32:19;;;;;;;6.80;6.20;;;;;;;;;;5095224;28;20032;-75
2021/09/11 03:34:46;;;;;;;7.60;6.43;;;;;;;;;;5095190;28;20471;-75
2021/09/11 03:37:12;;;;;;;7.85;7.05;;;;;;;;;;5095208;28;20110;-76
2021/09/11 03:39:38;;;;;;;7.28;6.57;;;;;;;;;;5094808;28;20105;-75
2021/09/11 03:42:04;;;;;;;8.10;6.28;;;;;;;;;;5094889;28;20048;-75
2021/09/11 03:44:30;;;;;;;6.78;6.13;;;;;;;;;;5094965;28;20525;-75
2021/09/11 03:46:56;;;;;;;6.50;5.93;;;;;;;;;;5094719;28;20079;-75
2021/09/11 03:49:22;;;;;;;7.32;6.60;;;;;;;;;;5094851;28;20103;-75
2021/09/11 03:51:49;;;;;;;8.07;7.32;;;;;;;;;;5094791;28;20558;-75
2021/09/11 03:54:15;;;;;;;8.35;6.80;;;;;;;;;;5094853;28;20059;-75
2021/09/11 03:56:41;;;;;;;8.40;6.30;;;;;;;;;;5094615;28;20417;-75
2021/09/11 03:59:07;;;;;;;7.25;6.55;;;;;;;;;;5093393;28;20036;-75
2021/09/11 04:01:34;;;;;;;6.57;6.03;;;;;;;;;;5094761;28;20024;-75
2021/09/11 04:04:00;;;;;;;6.70;5.88;;;;;;;;;;5094579;28;20099;-76
2021/09/11 04:06:26;;;;;;;7.22;6.40;;;;;;;;;;5094561;28;20032;-75
2021/09/11 04:08:52;;;;;;;6.18;5.60;;;;;;;;;;5094496;28;20054;-76
2021/09/11 04:11:24;;;;;;;7.53;6.93;;;;;;;;;;5094457;28;20390;-75
2021/09/11 04:13:50;;;;;;;9.13;7.70;;;;;;;;;;5094493;28;20053;-75
2021/09/11 04:16:16;;;;;;;8.32;6.50;;;;;;;;;;5094409;28;20028;-75
2021/09/11 04:18:42;;;;;;;8.05;7.35;;;;;;;;;;5094306;28;20031;-75
2021/09/11 04:21:09;;;;;;;11.02;9.88;;;;;;;;;;5094218;28;20032;-75
2021/09/11 04:23:35;;;;;;;16.98;13.88;;;;;;;;;;5094080;28;20463;-76
2021/09/11 04:26:01;;;;;;;18.33;13.68;;;;;;;;;;5094109;28;20035;-76
2021/09/11 04:28:27;;;;;;;22.15;17.35;;;;;;;;;;5094063;28;20138;-76
2021/09/11 04:30:53;;;;;;;58.80;43.35;;;;;;;;;;5094067;28;20108;-75
2021/09/11 04:33:19;;;;;;;11.30;10.25;;;;;;;;;;5094021;28;20020;-75
2021/09/11 04:35:45;;;;;;;19.33;14.23;;;;;;;;;;5094050;28;20032;-75
2021/09/11 04:38:12;;;;;;;28.15;21.85;;;;;;;;;;5093883;28;20059;-75
2021/09/11 04:40:38;;;;;;;31.42;25.20;;;;;;;;;;5092710;28;20123;-75
2021/09/11 04:43:07;;;;;;;22.17;17.85;;;;;;;;;;5093781;28;20027;-75
2021/09/11 04:45:33;;;;;;;15.82;12.55;;;;;;;;;;5093838;28;20036;-76
2021/09/11 04:47:59;;;;;;;17.15;11.68;;;;;;;;;;5093674;28;20043;-76
2021/09/11 04:50:25;;;;;;;13.43;11.13;;;;;;;;;;5093898;28;20020;-75
2021/09/11 04:52:51;;;;;;;15.70;11.07;;;;;;;;;;5093754;28;20028;-75
2021/09/11 04:55:17;;;;;;;11.70;10.45;;;;;;;;;;5093887;28;20043;-75
2021/09/11 04:57:43;;;;;;;12.07;10.55;;;;;;;;;;5093621;28;20032;-75
2021/09/11 05:00:10;;;;;;;12.48;9.80;;;;;;;;;;5093833;28;20024;-75
2021/09/11 05:02:36;;;;;;;10.25;8.90;;;;;;;;;;5093653;28;20031;-75
2021/09/11 05:05:02;;;;;;;10.05;9.07;;;;;;;;;;5093595;28;20027;-75
2021/09/11 05:07:29;;;;;;;8.93;7.88;;;;;;;;;;5093476;28;20085;-75
2021/09/11 05:09:55;;;;;;;10.27;7.47;;;;;;;;;;5093541;28;20028;-75
2021/09/11 05:12:21;;;;;;;10.13;7.78;;;;;;;;;;5092233;28;20034;-76
2021/09/11 05:14:47;;;;;;;10.43;8.20;;;;;;;;;;5093370;28;20032;-75
2021/09/11 05:17:16;;;;;;;9.77;7.80;;;;;;;;;;5093408;28;20371;-75
2021/09/11 05:19:42;;;;;;;11.30;9.20;;;;;;;;;;5093242;28;20024;-75
2021/09/11 05:22:09;;;;;;;11.18;9.30;;;;;;;;;;5093372;28;20057;-75
2021/09/11 05:24:35;;;;;;;9.95;8.93;;;;;;;;;;5093476;28;20483;-75
2021/09/11 05:27:01;;;;;;;10.23;8.45;;;;;;;;;;5093303;28;20055;-75
2021/09/11 05:29:27;;;;;;;10.80;9.50;;;;;;;;;;5093274;28;20039;-76
2021/09/11 05:31:54;;;;;;;13.02;10.20;;;;;;;;;;5093327;28;20020;-75
2021/09/11 05:34:20;;;;;;;11.45;9.85;;;;;;;;;;5096392;28;20031;-76
2021/09/11 05:36:48;;;;;;;11.45;9.23;;;;;;;;;;5097413;28;20028;-75
2021/09/11 05:39:14;;;;;;;12.23;9.52;;;;;;;;;;5097284;28;20127;-76
2021/09/11 05:41:40;;;;;;;10.68;9.23;;;;;;;;;;5097376;28;20024;-76
2021/09/11 05:44:06;;;;;;;14.65;11.18;;;;;;;;;;5095924;28;20483;-75
2021/09/11 05:46:34;;;;;;;13.60;10.43;;;;;;;;;;5097024;28;20024;-76
2021/09/11 05:49:00;;;;;;;16.58;12.23;;;;;;;;;;5096966;28;20499;-75
2021/09/11 05:51:26;;;;;;;14.32;10.50;;;;;;;;;;5097112;28;20374;-75
2021/09/11 05:53:52;;;;;;;9.98;8.95;;;;;;;;;;5097102;28;20062;-75
2021/09/11 05:56:19;;;;;;;9.77;8.65;;;;;;;;;;5096949;28;20123;-76
2021/09/11 05:58:45;;;;;;;10.90;8.75;;;;;;;;;;5096936;28;20473;-75
2021/09/11 06:01:13;;;;;;;13.95;10.60;;;;;;;;;;5096993;28;20107;-76
2021/09/11 06:03:40;;;;;;;16.08;12.45;;;;;;;;;;5094614;28;20028;-76
2021/09/11 06:06:07;;;;;;;15.52;12.95;;;;;;;;;;5095721;28;20099;-76
2021/09/11 06:08:33;;;;;;;19.05;15.95;;;;;;;;;;5094472;28;20086;-76
2021/09/11 06:10:59;;;;;;;17.77;13.52;;;;;;;;;;5095882;28;20364;-77
2021/09/11 06:13:26;;;;;;;13.40;10.07;;;;;;;;;;5095400;28;20028;-77
2021/09/11 06:15:52;;;;;;;11.20;8.43;;;;;;;;;;5095303;28;20035;-78
2021/09/11 06:18:18;;;;;;;9.80;8.90;;;;;;;;;;5095350;28;20023;-78
2021/09/11 06:20:44;;;;;;;10.20;7.93;;;;;;;;;;5095580;28;20503;-78
2021/09/11 06:23:10;;;;;;;19.08;16.17;;;;;;;;;;5095198;28;20043;-77
2021/09/11 06:25:36;;;;;;;18.52;12.50;;;;;;;;;;5094161;28;20032;-78
2021/09/11 06:28:02;;;;;;;12.32;9.27;;;;;;;;;;5095151;28;20073;-78
2021/09/11 06:30:28;;;;;;;14.38;10.82;;;;;;;;;;5093561;28;20036;-77
2021/09/11 06:32:54;;;;;;;11.13;8.25;;;;;;;;;;5095029;28;20038;-76
2021/09/11 06:35:21;;;;;;;10.48;8.02;;;;;;;;;;5095268;28;20101;-76
2021/09/11 06:37:47;;;;;;;10.60;8.40;;;;;;;;;;5094787;28;20027;-77
2021/09/11 06:40:13;;;;;;;8.45;6.63;;;;;;;;;;5095093;28;20051;-79
2021/09/11 06:42:39;;;;;;;10.48;7.30;;;;;;;;;;5095043;28;20103;-76
2021/09/11 06:45:06;;;;;;;7.85;6.03;;;;;;;;;;5095020;28;20035;-76
2021/09/11 06:47:32;;;;;;;7.18;5.80;;;;;;;;;;5094746;28;20047;-76
2021/09/11 06:49:58;;;;;;;7.53;5.30;;;;;;;;;;5095129;28;20029;-75
2021/09/11 06:52:24;;;;;;;5.90;4.65;;;;;;;;;;5094339;28;20028;-77
2021/09/11 06:54:50;;;;;;;7.10;6.38;;;;;;;;;;5094726;28;20032;-77
2021/09/11 06:57:16;;;;;;;8.70;6.32;;;;;;;;;;5094889;28;20035;-77
2021/09/11 06:59:42;;;;;;;11.77;9.05;;;;;;;;;;5094224;28;20101;-77
2021/09/11 07:02:08;;;;;;;12.25;8.25;;;;;;;;;;5094874;28;20099;-78
2021/09/11 07:04:35;;;;;;;8.18;5.90;;;;;;;;;;5094211;28;20028;-77
2021/09/11 07:07:01;;;;;;;7.32;5.90;;;;;;;;;;5094452;28;20085;-76
2021/09/11 07:09:27;;;;;;;9.25;6.60;;;;;;;;;;5094196;28;20020;-77
2021/09/11 07:11:53;;;;;;;8.88;6.63;;;;;;;;;;5094584;28;20085;-78
2021/09/11 07:14:19;;;;;;;5.85;5.13;;;;;;;;;;5094629;28;20027;-77
2021/09/11 07:16:45;;;;;;;6.60;5.57;;;;;;;;;;5094494;28;20099;-77
2021/09/11 07:19:11;;;;;;;9.52;5.78;;;;;;;;;;5094717;28;20482;-76
2021/09/11 07:21:38;;;;;;;10.75;6.18;;;;;;;;;;5093965;28;20047;-76
2021/09/11 07:24:05;;;;;;;8.10;7.22;;;;;;;;;;5094259;28;20093;-77
2021/09/11 07:26:31;;;;;;;6.22;5.63;;;;;;;;;;5094058;28;20024;-76
2021/09/11 07:28:57;;;;;;;5.90;5.25;;;;;;;;;;5094128;28;20032;-77
2021/09/11 07:31:23;;;;;;;9.63;6.93;;;;;;;;;;5093835;28;20030;-76
2021/09/11 07:33:49;;;;;;;12.30;6.18;;;;;;;;;;5092479;28;20421;-77
2021/09/11 07:36:15;;;;;;;8.20;5.57;;;;;;;;;;5093881;28;20048;-81
2021/09/11 07:38:41;;;;;;;12.25;6.55;;;;;;;;;;5093329;28;20047;-77
2021/09/11 07:41:07;;;;;;;7.35;6.40;;;;;;;;;;5094123;28;20414;-77
2021/09/11 07:43:34;;;;;;;6.10;5.50;;;;;;;;;;5093743;28;20470;-77
2021/09/11 07:46:00;;;;;;;8.90;6.80;;;;;;;;;;5093986;28;20081;-77
2021/09/11 07:48:26;;;;;;;5.68;4.75;;;;;;;;;;5094562;28;20071;-76
2021/09/11 07:50:53;;;;;;;9.77;5.82;;;;;;;;;;5094088;28;20032;-76
2021/09/11 07:53:19;;;;;;;7.75;6.00;;;;;;;;;;5094570;28;20024;-77
2021/09/11 07:55:45;;;;;;;7.90;4.63;;;;;;;;;;5093674;28;20031;-76
2021/09/11 07:58:11;;;;;;;11.30;6.32;;;;;;;;;;5094644;28;20020;-76
2021/09/11 08:00:37;;;;;;;8.50;6.18;;;;;;;;;;5094642;28;20027;-77
2021/09/11 08:03:04;;;;;;;6.20;4.80;;;;;;;;;;5094466;28;20099;-77
2021/09/11 08:05:30;;;;;;;6.53;4.40;;;;;;;;;;5093994;28;20028;-76
2021/09/11 08:07:56;;;;;;;8.75;5.13;;;;;;;;;;5093853;28;20036;-77
2021/09/11 08:10:22;;;;;;;5.53;4.30;;;;;;;;;;5094194;28;20020;-77
2021/09/11 08:12:49;;;;;;;11.45;5.55;;;;;;;;;;5093990;28;20475;-77
2021/09/11 08:15:16;;;;;;;13.00;6.20;;;;;;;;;;5093930;28;20065;-76
2021/09/11 08:17:42;;;;;;;5.32;4.35;;;;;;;;;;5093945;28;20032;-77
2021/09/11 08:20:09;;;;;;;7.32;4.70;;;;;;;;;;5093973;28;20058;-77
2021/09/11 08:22:35;;;;;;;5.07;4.07;;;;;;;;;;5093834;28;20059;-77
2021/09/11 08:25:04;;;;;;;6.10;5.60;;;;;;;;;;5093586;28;20036;-78
2021/09/11 08:27:31;;;;;;;8.48;4.35;;;;;;;;;;5093707;28;20540;-76
2021/09/11 08:29:57;;;;;;;4.78;4.10;;;;;;;;;;5094041;28;20376;-76
2021/09/11 08:32:23;;;;;;;5.63;4.32;;;;;;;;;;5093767;28;20058;-77
2021/09/11 08:34:52;;;;;;;6.43;4.30;;;;;;;;;;5091233;28;20056;-76
2021/09/11 08:37:18;;;;;;;5.13;4.40;;;;;;;;;;5092512;28;20421;-77
2021/09/11 08:39:44;;;;;;;5.95;4.65;;;;;;;;;;5092890;28;20056;-77
2021/09/11 08:42:11;;;;;;;6.38;4.10;;;;;;;;;;5092962;28;20445;-77
2021/09/11 08:44:37;;;;;;;4.75;3.83;;;;;;;;;;5092782;28;20463;-77
2021/09/11 08:47:05;;;;;;;5.68;5.07;;;;;;;;;;5092573;28;20028;-77
2021/09/11 08:49:31;;;;;;;5.20;4.70;;;;;;;;;;5092222;28;20122;-77
2021/09/11 08:51:58;;;;;;;5.30;4.47;;;;;;;;;;5092886;28;20028;-79
2021/09/11 08:54:24;;;;;;;5.65;4.55;;;;;;;;;;5092789;28;20101;-76
2021/09/11 08:56:51;;;;;;;6.18;5.03;;;;;;;;;;5092524;28;20036;-77
2021/09/11 08:59:18;;;;;;;6.03;3.95;;;;;;;;;;5091009;28;20382;-76
2021/09/11 09:02:00;;;;;;;4.68;4.22;;;;;;;;;;5092409;28;20123;-76
2021/09/11 09:04:42;;;;;;;5.88;4.60;;;;;;;;;;5092035;28;20433;-77
2021/09/11 09:07:08;;;;;;;5.72;4.15;;;;;;;;;;5091654;28;20043;-76
2021/09/11 09:09:39;;;;;;;4.65;3.95;;;;;;;;;;5091963;28;20032;-76
2021/09/11 09:12:17;;;;;;;5.30;4.72;;;;;;;;;;5092483;28;20487;-75
2021/09/11 09:15:02;;;;;;;4.50;3.92;;;;;;;;;;5092380;28;20394;-76
2021/09/11 09:17:46;;;;;;;4.78;4.03;;;;;;;;;;5092339;28;20057;-77
2021/09/11 09:20:42;;;;;;;4.63;4.07;;;;;;;;;;5092505;28;20425;-76
2021/09/11 09:23:17;;;;;;;4.43;4.03;;;;;;;;;;5079739;28;20371;-76
2021/09/11 09:25:44;;;;;;;4.97;4.05;;;;;;;;;;5092080;28;20047;-76
2021/09/11 09:28:14;;;;;;;4.85;3.55;;;;;;;;;;5092207;28;20039;-76
2021/09/11 09:30:40;;;;;;;4.40;3.90;;;;;;;;;;5092840;28;20428;-76
2021/09/11 09:33:07;;;;;;;4.07;3.67;;;;;;;;;;5093054;28;20114;-77
2021/09/11 09:35:34;;;;;;;5.07;3.72;;;;;;;;;;5092814;28;20383;-75
2021/09/11 09:38:10;;;;;;;7.43;3.92;;;;;;;;;;5092780;28;20070;-76
2021/09/11 09:40:54;;;;;;;3.78;3.42;;;;;;;;;;5092740;28;20086;-76
2021/09/11 09:43:40;;;;;;;6.07;3.83;;;;;;;;;;5093088;28;20055;-77
2021/09/11 09:46:11;;;;;;;4.28;3.55;;;;;;;;;;5093118;28;20032;-76
2021/09/11 09:48:38;;;;;;;6.65;4.10;;;;;;;;;;5092755;28;20036;-76
2021/09/11 09:51:17;;;;;;;3.78;3.33;;;;;;;;;;5093193;28;20024;-76
2021/09/11 09:53:44;;;;;;;4.93;3.50;;;;;;;;;;5092488;28;20062;-75
2021/09/11 09:56:11;;;;;;;3.67;3.30;;;;;;;;;;5091746;28;20070;-76
2021/09/11 09:58:37;;;;;;;4.80;3.38;;;;;;;;;;5092478;28;20021;-76
2021/09/11 10:01:04;;;;;;;4.70;3.83;;;;;;;;;;5092887;28;20024;-76
2021/09/11 10:03:30;;;;;;;3.25;3.05;;;;;;;;;;5092870;28;20028;-76
2021/09/11 10:06:05;;;;;;;3.75;2.60;;;;;;;;;;5092870;28;20077;-76
2021/09/11 10:08:33;;;;;;;4.95;2.80;;;;;;;;;;5092253;28;20032;-75
2021/09/11 10:11:08;;;;;;;4.38;2.80;;;;;;;;;;5092832;28;20074;-76
2021/09/11 10:13:36;;;;;;;4.07;2.83;;;;;;;;;;5092602;28;20028;-76
2021/09/11 10:16:08;;;;;;;4.13;3.03;;;;;;;;;;5092487;28;20031;-75
2021/09/11 10:18:34;;;;;;;3.08;2.38;;;;;;;;;;5092767;28;20024;-76
2021/09/11 10:21:19;;;;;;;5.00;4.03;;;;;;;;;;5096410;28;20028;-76
2021/09/11 10:24:04;;;;;;;3.65;2.67;;;;;;;;;;5095968;28;20036;-77
2021/09/11 10:26:48;;;;;;;4.10;2.88;;;;;;;;;;5095921;28;20028;-75
2021/09/11 10:29:36;;;;;;;5.30;2.65;;;;;;;;;;5096202;28;20028;-77
2021/09/11 10:32:05;;;;;;;5.43;4.60;;;;;;;;;;5096221;28;20495;-77
2021/09/11 10:34:53;;;;;;;8.35;3.42;;;;;;;;;;5095795;28;20515;-76
2021/09/11 10:37:38;;;;;;;5.30;2.63;;;;;;;;;;5096063;28;20024;-75
2021/09/11 10:40:22;;;;;;;3.53;2.22;;;;;;;;;;5095744;28;20086;-75
2021/09/11 10:43:10;;;;;;;3.83;2.35;;;;;;;;;;5096021;28;20471;-74
2021/09/11 10:45:39;;;;;;;4.63;2.67;;;;;;;;;;5095528;28;20030;-74
2021/09/11 10:50:50;;;;;;;4.35;3.70;;;;;;;;;;5095893;28;20540;-77
2021/09/11 10:53:20;;;;;;;5.75;2.97;;;;;;;;;;5095675;28;20107;-76
2021/09/11 10:55:48;;;;;;;5.93;2.90;;;;;;;;;;5095863;28;20494;-76
2021/09/11 10:58:27;;;;;;;6.07;3.00;;;;;;;;;;5095766;28;20035;-76
2021/09/11 11:00:57;;;;;;;4.00;3.08;;;;;;;;;;5095622;28;20028;-75
2021/09/11 11:03:23;;;;;;;6.80;2.90;;;;;;;;;;5095451;28;20055;-75
2021/09/11 11:06:00;;;;;;;6.78;3.58;;;;;;;;;;5095354;28;20035;-74
2021/09/11 11:08:28;;;;;;;4.43;2.55;;;;;;;;;;5095128;28;20487;-74
2021/09/11 11:10:55;;;;;;;3.60;2.65;;;;;;;;;;5095323;28;20028;-76
2021/09/11 11:13:22;;;;;;;3.47;2.40;;;;;;;;;;5095193;28;20024;-76
2021/09/11 11:15:55;;;;;;;5.00;3.10;;;;;;;;;;5095487;28;20108;-76
2021/09/11 11:18:21;;;;;;;4.00;2.00;;;;;;;;;;5094888;28;20028;-75
2021/09/11 11:20:47;;;;;;;3.45;1.77;;;;;;;;;;5095241;28;20035;-75
2021/09/11 11:23:13;;;;;;;3.30;2.15;;;;;;;;;;5095527;28;20116;-75
2021/09/11 11:25:40;;;;;;;3.15;2.00;;;;;;;;;;5094770;28;20056;-76
2021/09/11 11:28:07;;;;;;;5.35;2.10;;;;;;;;;;5093823;28;20044;-75
2021/09/11 11:30:52;;;;;;;4.38;2.75;;;;;;;;;;5093993;28;20050;-75
2021/09/11 11:33:19;;;;;;;3.78;1.90;;;;;;;;;;5094739;28;20028;-76
2021/09/11 11:35:45;;;;;;;2.95;1.50;;;;;;;;;;5095048;28;20036;-75
2021/09/11 11:38:11;;;;;;;3.42;2.05;;;;;;;;;;5094077;28;20095;-76
2021/09/11 11:40:38;;;;;;;5.65;3.50;;;;;;;;;;5094636;28;20028;-77
2021/09/11 11:43:04;;;;;;;4.15;2.40;;;;;;;;;;5094601;28;20024;-76
2021/09/11 11:45:31;;;;;;;5.85;3.13;;;;;;;;;;5094218;28;20073;-77
2021/09/11 11:48:00;;;;;;;5.93;2.22;;;;;;;;;;5094132;28;20140;-75
2021/09/11 11:50:29;;;;;;;3.58;1.70;;;;;;;;;;5094360;28;20382;-77
2021/09/11 11:52:59;;;;;;;2.22;1.65;;;;;;;;;;5094857;28;20016;-75
2021/09/11 11:55:26;;;;;;;4.40;1.95;;;;;;;;;;5088202;28;20032;-76
2021/09/11 11:57:52;;;;;;;5.15;2.63;;;;;;;;;;5080657;28;20491;-76
2021/09/11 12:00:18;;;;;;;4.10;2.50;;;;;;;;;;5073780;28;20048;-76
2021/09/11 12:02:47;;;;;;;8.52;2.15;;;;;;;;;;5073984;28;20040;-76
2021/09/11 12:05:17;;;;;;;2.90;1.80;;;;;;;;;;5086102;28;20048;-75
2021/09/11 12:08:05;;;;;;;3.33;1.83;;;;;;;;;;5093167;28;20050;-75
2021/09/11 12:10:32;;;;;;;2.33;1.70;;;;;;;;;;5093451;28;20052;-77
2021/09/11 12:13:09;;;;;;;4.43;1.80;;;;;;;;;;5106532;28;20031;-75
2021/09/11 12:15:36;;;;;;;1.80;1.70;;;;;;;;;;5089075;28;20039;-76
2021/09/11 12:18:20;;;;;;;2.22;1.85;;;;;;;;;;5073071;28;20028;-76
2021/09/11 12:20:46;;;;;;;2.63;1.90;;;;;;;;;;5072769;28;20111;-76
2021/09/11 12:23:14;;;;;;;10.32;2.28;;;;;;;;;;5093611;28;20153;-74
2021/09/11 12:25:59;;;;;;;3.63;2.20;;;;;;;;;;5093305;28;20402;-76
2021/09/11 12:28:31;;;;;;;3.97;2.10;;;;;;;;;;5093016;28;20032;-77
2021/09/11 12:30:57;;;;;;;5.00;2.45;;;;;;;;;;5093085;28;20368;-75
2021/09/11 12:33:24;;;;;;;3.72;3.30;;;;;;;;;;5083287;28;20158;-78
2021/09/11 12:35:50;;;;;;;6.78;2.78;;;;;;;;;;5080061;28;20025;-76
2021/09/11 12:38:16;;;;;;;6.30;3.88;;;;;;;;;;5085363;28;20398;-74
2021/09/11 12:40:42;;;;;;;5.32;3.92;;;;;;;;;;5093481;28;20036;-75
2021/09/11 12:43:11;;;;;;;6.68;3.50;;;;;;;;;;5092465;28;20030;-74
2021/09/11 12:45:41;;;;;;;2.85;1.98;;;;;;;;;;5093166;28;20032;-76
2021/09/11 12:48:07;;;;;;;3.45;2.20;;;;;;;;;;5092396;28;20447;-75
2021/09/11 12:50:33;;;;;;;4.30;2.65;;;;;;;;;;5092805;28;20027;-77
2021/09/11 12:52:59;;;;;;;4.80;2.60;;;;;;;;;;5092746;28;20054;-76
2021/09/11 12:55:26;;;;;;;4.53;3.22;;;;;;;;;;5092916;28;20077;-76
2021/09/11 12:57:52;;;;;;;4.70;2.58;;;;;;;;;;5093398;28;20372;-75
2021/09/11 13:00:18;;;;;;;5.63;3.70;;;;;;;;;;5092072;28;20473;-74
2021/09/11 13:02:45;;;;;;;3.13;2.65;;;;;;;;;;5093614;28;20024;-74
2021/09/11 13:05:11;;;;;;;3.92;2.35;;;;;;;;;;5092436;28;20067;-75
2021/09/11 13:07:38;;;;;;;3.47;2.10;;;;;;;;;;5092295;28;20089;-75
2021/09/11 13:10:04;;;;;;;2.60;1.75;;;;;;;;;;5093693;28;20031;-77
2021/09/11 13:12:30;;;;;;;3.38;1.90;;;;;;;;;;5093616;28;20028;-76
2021/09/11 13:14:56;;;;;;;3.33;1.75;;;;;;;;;;5093253;28;20445;-76
2021/09/11 13:17:22;;;;;;;3.78;1.70;;;;;;;;;;5092090;28;20094;-75
2021/09/11 13:19:48;;;;;;;3.50;1.90;;;;;;;;;;5092217;28;20047;-78
2021/09/11 13:22:14;;;;;;;2.97;1.73;;;;;;;;;;5093216;28;20451;-77
2021/09/11 13:24:40;;;;;;;7.35;2.10;;;;;;;;;;5093511;28;20494;-74
2021/09/11 13:27:07;;;;;;;3.53;1.50;;;;;;;;;;5093141;28;20035;-77
2021/09/11 13:29:33;;;;;;;3.90;1.83;;;;;;;;;;5093525;28;20024;-76
2021/09/11 13:31:59;;;;;;;2.85;1.92;;;;;;;;;;5093341;28;20035;-75
2021/09/11 13:34:30;;;;;;;3.33;1.70;;;;;;;;;;5091904;28;20585;-74
2021/09/11 13:36:56;;;;;;;3.70;1.75;;;;;;;;;;5093472;28;20028;-77
2021/09/11 13:39:22;;;;;;;5.38;1.60;;;;;;;;;;5093244;28;20519;-77
2021/09/11 13:41:48;;;;;;;2.53;1.50;;;;;;;;;;5093355;28;20024;-77
2021/09/11 13:44:14;;;;;;;2.50;1.48;;;;;;;;;;5093165;28;20035;-77
2021/09/11 13:46:41;;;;;;;3.20;2.20;;;;;;;;;;5092983;28;20059;-74
2021/09/11 13:49:08;;;;;;;2.20;1.83;;;;;;;;;;5093226;28;20078;-77
2021/09/11 13:51:34;;;;;;;7.43;2.45;;;;;;;;;;5093168;28;20100;-76
2021/09/11 13:54:01;;;;;;;3.50;1.98;;;;;;;;;;5094292;28;20047;-74
2021/09/11 13:56:27;;;;;;;2.20;1.52;;;;;;;;;;5097232;28;20024;-75
2021/09/11 13:58:54;;;;;;;4.30;1.70;;;;;;;;;;5097126;28;20026;-77
2021/09/11 14:01:20;;;;;;;3.15;1.88;;;;;;;;;;5097278;28;20463;-75
2021/09/11 14:03:46;;;;;;;2.35;1.48;;;;;;;;;;5096303;28;20028;-76
2021/09/11 14:06:12;;;;;;;3.35;1.70;;;;;;;;;;5096014;28;20055;-76
2021/09/11 14:08:38;;;;;;;5.13;2.83;;;;;;;;;;5094891;28;20398;-77
2021/09/11 14:11:05;;;;;;;4.20;2.50;;;;;;;;;;5096869;28;20027;-75
2021/09/11 14:13:32;;;;;;;9.00;3.75;;;;;;;;;;5096781;28;20039;-76
2021/09/11 14:15:58;;;;;;;2.63;1.70;;;;;;;;;;5095533;28;20101;-74
2021/09/11 14:18:24;;;;;;;2.30;1.42;;;;;;;;;;5096733;28;20020;-75
2021/09/11 14:20:50;;;;;;;2.10;1.83;;;;;;;;;;5095680;28;20396;-76
2021/09/11 14:23:17;;;;;;;3.00;2.05;;;;;;;;;;5096071;28;20471;-74
2021/09/11 14:25:43;;;;;;;1.85;1.40;;;;;;;;;;5096405;28;20433;-77
2021/09/11 14:28:11;;;;;;;4.00;2.13;;;;;;;;;;5096325;28;20115;-76
2021/09/11 14:30:37;;;;;;;2.75;2.15;;;;;;;;;;5095588;28;20039;-77
2021/09/11 14:33:03;;;;;;;1.92;1.70;;;;;;;;;;5095633;28;20434;-77
2021/09/11 14:35:30;;;;;;;3.50;1.77;;;;;;;;;;5096110;28;20032;-77
2021/09/11 14:37:56;;;;;;;4.05;1.70;;;;;;;;;;5095747;28;20505;-76
2021/09/11 14:40:22;;;;;;;5.25;1.80;;;;;;;;;;5095294;28;20082;-75
2021/09/11 14:42:48;;;;;;;2.95;1.50;;;;;;;;;;5095429;28;20036;-76
2021/09/11 14:45:14;;;;;;;2.95;1.90;;;;;;;;;;5094291;28;20020;-74